Pagrindinis puslapis
METAR-TAF:

METAR-TAF

Oro uostai :

Kororas, Babeltuapas, Palau

platuma: 07-22N, ilguma: 134-32E, Aukštis: 54 m

Dabartinis oras

Ataskaita buvo paskelbta 1 valandą ir 35 minutes, ne 19:50 UTC
Ramus vėjas
Temperatūra 23°C
Drėgmė 94%
Slėgis 1011 hPa
Matomumas: 24.1 km
Mažai debesys ne aukštis 1600 ft
Su prošvaistėmis ne aukštis 30000 ft

METAR: PTRO 201950Z 00000KT 15SM FEW016 BKN300 23/22 A2984

Laikas: 06:25 (21:25 UTC)

Prognozė

Ataskaita buvo paskelbta 3 valandos ir 59 minutes, ne 17:26 UTC
Prognozė galioja nuo 20 metu 18 UTC su 21 metu 18 UTC
Vėjas 6 kt iš Vakarų/Šiaurės Vakarų
Matomumas: 10 km
Išsisklaidę debesys ne aukštis 1600 ft
Išsisklaidę debesys ne aukštis 11000 ft
Liūtis kaimynystėje

TAF: PTRO 201726Z 2018/2118 29006KT P6SM VCSH SCT016 SCT110

Orai ataskaitas ir orų prognozės (METAR, TAF).

turimą stotys yra geltonos ir raudonos taškus žemėlapyje.

Perkelti pele per norėdami pamatyti stoties vardą.

Tada spustelėkite, norėdami matyti oro stebėjimo ir prognozės.

Norėdami pakeisti žemėlapį: spustelėkite ant žalios mygtukų su juodo kryžiaus žemyn,; žalią mygtuką su brūkšneliu, jei norite nutolinti; arba žalių rodyklių gretimoms žemėlapius.


METAR-TAF: